createdAt,value
2019-01-11T00:00:33.465Z,3.92
2019-01-11T00:03:20.329Z,3.88
2019-01-11T00:06:09.355Z,3.88
2019-01-11T00:08:55.919Z,3.82
2019-01-11T00:11:43.142Z,3.74
2019-01-11T00:14:30.307Z,3.83
2019-01-11T00:17:17.604Z,3.92
2019-01-11T00:20:07.868Z,3.72
2019-01-11T00:22:55.183Z,3.60
2019-01-11T00:25:41.969Z,3.74
2019-01-11T00:28:29.324Z,3.79
2019-01-11T00:31:16.370Z,3.88
2019-01-11T00:34:03.621Z,3.72
2019-01-11T00:36:51.170Z,3.68
2019-01-11T00:39:38.711Z,3.71
2019-01-11T00:42:25.760Z,3.68
2019-01-11T00:45:13.401Z,3.85
2019-01-11T00:48:00.736Z,3.70
2019-01-11T00:50:47.853Z,3.78
2019-01-11T00:53:35.094Z,3.71
2019-01-11T00:56:22.741Z,3.80
2019-01-11T00:59:09.953Z,3.72
2019-01-11T01:01:57.348Z,3.85
2019-01-11T01:04:44.583Z,3.88
2019-01-11T01:07:31.816Z,3.85
2019-01-11T01:10:20.574Z,3.90
2019-01-11T01:13:07.958Z,3.83
2019-01-11T01:15:55.625Z,3.84
2019-01-11T01:18:43.061Z,3.85
2019-01-11T01:21:30.511Z,3.86
2019-01-11T01:24:17.693Z,3.76
2019-01-11T01:27:05.139Z,3.74
2019-01-11T01:29:52.568Z,3.58
2019-01-11T01:32:40.073Z,3.55
2019-01-11T01:35:27.325Z,3.74
2019-01-11T01:38:14.569Z,3.79
2019-01-11T01:41:01.723Z,3.80
2019-01-11T01:43:49.164Z,3.68
2019-01-11T01:46:36.627Z,3.78
2019-01-11T01:49:26.673Z,3.57
2019-01-11T01:52:12.397Z,3.45
2019-01-11T01:54:59.649Z,3.58
2019-01-11T01:57:46.750Z,3.66
2019-01-11T02:00:33.982Z,3.71
2019-01-11T02:03:21.215Z,3.76
2019-01-11T02:06:08.268Z,3.74
2019-01-11T02:08:55.033Z,3.69
2019-01-11T02:11:42.349Z,3.60
2019-01-11T02:14:29.648Z,3.70
2019-01-11T02:17:17.938Z,3.62
2019-01-11T02:20:11.306Z,3.73
2019-01-11T02:22:58.412Z,3.82
2019-01-11T02:25:46.390Z,3.54
2019-01-11T02:28:34.108Z,3.69
2019-01-11T02:31:21.371Z,3.65
2019-01-11T02:34:08.312Z,3.67
2019-01-11T02:36:55.677Z,3.65
2019-01-11T02:39:43.069Z,3.75
2019-01-11T02:42:30.181Z,3.85
2019-01-11T02:45:19.263Z,3.61
2019-01-11T02:48:06.552Z,3.62
2019-01-11T02:50:53.996Z,3.65
2019-01-11T02:53:41.274Z,3.76
2019-01-11T02:56:28.575Z,3.74
2019-01-11T02:59:15.977Z,3.65
2019-01-11T03:02:03.646Z,3.66
2019-01-11T03:04:50.666Z,3.70
2019-01-11T03:07:37.988Z,3.63
2019-01-11T03:10:25.458Z,3.70
2019-01-11T03:13:12.584Z,3.70
2019-01-11T03:16:00.055Z,3.57
2019-01-11T03:18:47.293Z,3.30
2019-01-11T03:21:34.334Z,2.91
2019-01-11T03:24:21.350Z,3.24
2019-01-11T03:27:08.598Z,3.25
2019-01-11T03:29:55.449Z,3.43
2019-01-11T03:32:42.901Z,3.42
2019-01-11T03:35:30.063Z,3.54
2019-01-11T03:38:17.555Z,3.60
2019-01-11T03:41:04.549Z,3.64
2019-01-11T03:43:51.774Z,3.66
2019-01-11T03:46:38.899Z,3.74
2019-01-11T03:49:26.021Z,3.75
2019-01-11T03:52:13.086Z,3.75
2019-01-11T03:55:00.375Z,3.75
2019-01-11T03:57:47.521Z,3.67
2019-01-11T04:00:34.907Z,3.61
2019-01-11T04:03:22.479Z,3.35
2019-01-11T04:06:09.433Z,3.29
2019-01-11T04:08:56.715Z,3.41
2019-01-11T04:11:43.903Z,3.47
2019-01-11T04:14:31.034Z,3.62
2019-01-11T04:17:18.180Z,3.49
2019-01-11T04:20:08.838Z,3.43
2019-01-11T04:22:57.596Z,3.46
2019-01-11T04:25:45.082Z,3.21
2019-01-11T04:28:32.312Z,3.15
2019-01-11T04:31:19.158Z,3.11
2019-01-11T04:34:06.195Z,3.12
2019-01-11T04:36:53.411Z,3.23
2019-01-11T04:39:40.497Z,3.24
2019-01-11T04:42:27.627Z,3.33
2019-01-11T04:45:14.845Z,3.29
2019-01-11T04:48:02.183Z,3.33
2019-01-11T04:50:49.229Z,2.96
2019-01-11T04:53:36.475Z,2.99
2019-01-11T04:56:23.312Z,3.14
2019-01-11T04:59:10.585Z,3.33
2019-01-11T05:01:58.064Z,3.47
2019-01-11T05:04:45.276Z,3.54
2019-01-11T05:07:32.621Z,3.18
2019-01-11T05:10:19.906Z,3.26
2019-01-11T05:13:08.772Z,3.40
2019-01-11T05:15:55.983Z,3.24
2019-01-11T05:18:43.122Z,3.33
2019-01-11T05:21:30.477Z,3.42
2019-01-11T05:24:17.759Z,3.45
2019-01-11T05:27:04.912Z,3.30
2019-01-11T05:29:52.136Z,3.48
2019-01-11T05:32:39.388Z,3.39
2019-01-11T05:35:26.483Z,3.00
2019-01-11T05:38:13.305Z,3.06
2019-01-11T05:41:00.613Z,3.09
2019-01-11T05:43:47.989Z,2.97
2019-01-11T05:46:34.874Z,3.08
2019-01-11T05:49:22.108Z,3.23
2019-01-11T05:52:09.267Z,3.26
2019-01-11T05:54:56.170Z,3.25
2019-01-11T05:57:44.995Z,3.05
2019-01-11T06:00:32.515Z,3.14
2019-01-11T06:03:19.673Z,3.20
2019-01-11T06:06:07.682Z,2.77
2019-01-11T06:08:54.854Z,3.15
2019-01-11T06:11:42.056Z,3.23
2019-01-11T06:14:29.223Z,3.14
2019-01-11T06:17:16.394Z,3.26
2019-01-11T06:20:05.537Z,3.06
2019-01-11T06:22:52.542Z,3.14
2019-01-11T06:25:39.665Z,3.11
2019-01-11T06:28:26.866Z,3.01
2019-01-11T06:31:13.956Z,3.00
2019-01-11T06:34:00.736Z,2.84
2019-01-11T06:36:47.859Z,3.03
2019-01-11T06:39:35.335Z,3.21
2019-01-11T06:42:24.132Z,3.10
2019-01-11T06:45:11.589Z,3.05
2019-01-11T06:47:59.158Z,2.99
2019-01-11T06:50:46.151Z,2.64
2019-01-11T06:53:33.190Z,2.80
2019-01-11T06:56:20.224Z,2.57
2019-01-11T06:59:09.172Z,2.43
2019-01-11T07:01:56.612Z,2.75
2019-01-11T07:04:43.764Z,2.81
2019-01-11T07:07:30.871Z,2.86
2019-01-11T07:10:22.862Z,3.14
2019-01-11T07:13:10.096Z,3.13
2019-01-11T07:15:57.294Z,3.09
2019-01-11T07:18:44.656Z,3.13
2019-01-11T07:21:31.915Z,3.35
2019-01-11T07:24:19.270Z,3.25
2019-01-11T07:27:06.182Z,3.33
2019-01-11T07:29:53.395Z,3.27
2019-01-11T07:32:40.805Z,3.30
2019-01-11T07:35:29.558Z,3.14
2019-01-11T07:38:16.572Z,2.97
2019-01-11T07:41:03.770Z,2.88
2019-01-11T07:43:51.147Z,2.85
2019-01-11T07:46:39.782Z,3.21
2019-01-11T07:49:26.570Z,3.54
2019-01-11T07:52:14.077Z,3.61
2019-01-11T07:55:01.088Z,3.54
2019-01-11T07:57:48.369Z,3.27
2019-01-11T08:00:35.913Z,3.41
2019-01-11T08:03:22.973Z,3.44
2019-01-11T08:06:10.161Z,3.53
2019-01-11T08:08:57.232Z,3.56
2019-01-11T08:11:44.410Z,3.61
2019-01-11T08:14:31.321Z,3.41
2019-01-11T08:17:18.780Z,3.43
2019-01-11T08:20:07.590Z,3.48
2019-01-11T08:22:54.719Z,3.42
2019-01-11T08:25:41.825Z,3.53
2019-01-11T08:28:30.320Z,3.24
2019-01-11T08:31:17.668Z,3.49
2019-01-11T08:34:05.128Z,3.34
2019-01-11T08:36:52.332Z,3.14
2019-01-11T08:39:39.433Z,3.16
2019-01-11T08:42:26.819Z,3.17
2019-01-11T08:45:15.164Z,3.18
2019-01-11T08:48:02.185Z,3.33
2019-01-11T08:50:49.249Z,3.42
2019-01-11T08:53:36.265Z,3.52
2019-01-11T08:56:23.524Z,3.55
2019-01-11T08:59:10.559Z,3.42
2019-01-11T09:01:57.837Z,3.18
2019-01-11T09:04:45.270Z,3.43
2019-01-11T09:07:32.754Z,3.50
2019-01-11T09:10:23.259Z,3.63
2019-01-11T09:13:08.646Z,3.56
2019-01-11T09:15:56.059Z,3.78
2019-01-11T09:18:45.422Z,3.89
2019-01-11T09:21:32.604Z,3.85
2019-01-11T09:24:19.646Z,3.56
2019-01-11T09:27:06.803Z,3.51
2019-01-11T09:29:54.240Z,3.32
2019-01-11T09:32:41.349Z,3.38
2019-01-11T09:35:28.761Z,3.63
2019-01-11T09:38:16.778Z,3.18
2019-01-11T09:41:04.123Z,3.45
2019-01-11T09:43:51.126Z,3.27
2019-01-11T09:46:38.243Z,3.31
2019-01-11T09:49:25.761Z,3.06
2019-01-11T09:52:13.169Z,3.25
2019-01-11T09:55:00.256Z,3.28
2019-01-11T09:57:47.423Z,3.56
2019-01-11T10:00:34.351Z,3.67
2019-01-11T10:03:21.377Z,3.50
2019-01-11T10:06:09.894Z,3.37
2019-01-11T10:08:57.034Z,3.43
2019-01-11T10:11:44.145Z,3.57
2019-01-11T10:14:31.314Z,3.41
2019-01-11T10:17:18.687Z,3.61
2019-01-11T10:20:08.141Z,3.69
2019-01-11T10:22:55.029Z,3.66
2019-01-11T10:25:42.148Z,3.85
2019-01-11T10:28:29.615Z,3.66
2019-01-11T10:31:16.869Z,3.50
2019-01-11T10:34:04.116Z,3.77
2019-01-11T10:36:51.344Z,3.68
2019-01-11T10:39:38.458Z,3.68
2019-01-11T10:42:25.881Z,3.31
2019-01-11T10:45:15.772Z,3.24
2019-01-11T10:48:02.848Z,3.53
2019-01-11T10:50:49.997Z,3.55
2019-01-11T10:53:37.067Z,3.65
2019-01-11T10:56:24.233Z,3.76
2019-01-11T10:59:11.482Z,3.67
2019-01-11T11:01:58.601Z,3.74
2019-01-11T11:04:45.773Z,3.97
2019-01-11T11:07:33.408Z,3.97
2019-01-11T11:10:20.735Z,4.05
2019-01-11T11:13:07.547Z,4.20
2019-01-11T11:15:55.848Z,4.14
2019-01-11T11:18:42.774Z,4.13
2019-01-11T11:21:34.654Z,3.91
2019-01-11T11:24:19.117Z,3.79
2019-01-11T11:27:06.719Z,2.99
2019-01-11T11:29:53.556Z,3.36
2019-01-11T11:32:48.371Z,3.75
2019-01-11T11:35:35.442Z,3.76
2019-01-11T11:38:22.600Z,3.97
2019-01-11T11:41:09.948Z,3.97
2019-01-11T11:43:57.079Z,4.01
2019-01-11T11:46:44.411Z,4.19
2019-01-11T11:49:32.589Z,4.24
2019-01-11T11:52:20.013Z,4.32
2019-01-11T11:55:08.828Z,3.98
2019-01-11T11:57:56.278Z,4.15
2019-01-11T12:00:43.465Z,4.17
2019-01-11T12:03:30.708Z,4.00
2019-01-11T12:06:18.081Z,3.93
2019-01-11T12:09:08.069Z,3.97
2019-01-11T12:11:55.134Z,3.94
2019-01-11T12:14:42.595Z,4.01
2019-01-11T12:17:29.991Z,3.94
2019-01-11T12:20:26.806Z,3.79
2019-01-11T12:23:14.084Z,3.89
2019-01-11T12:26:02.856Z,4.33
2019-01-11T12:28:50.051Z,4.17
2019-01-11T12:31:37.178Z,4.34
2019-01-11T12:34:24.173Z,4.38
2019-01-11T12:37:11.614Z,4.64
2019-01-11T12:39:58.881Z,4.60
2019-01-11T12:42:46.082Z,4.65
2019-01-11T12:45:33.470Z,4.62
2019-01-11T12:48:20.828Z,4.63
2019-01-11T12:51:08.040Z,4.50
2019-01-11T12:53:55.200Z,4.46
2019-01-11T12:56:42.459Z,4.45
2019-01-11T12:59:29.642Z,4.55
2019-01-11T13:02:16.760Z,4.14
2019-01-11T13:05:05.551Z,4.37
2019-01-11T13:07:52.786Z,4.40
2019-01-11T13:10:39.688Z,4.40
2019-01-11T13:13:26.626Z,4.48
2019-01-11T13:16:14.186Z,4.66
2019-01-11T13:19:01.239Z,4.41
2019-01-11T13:21:48.511Z,4.38
2019-01-11T13:24:35.643Z,4.33
2019-01-11T13:27:23.015Z,4.56
2019-01-11T13:30:12.761Z,4.63
2019-01-11T13:32:59.981Z,4.31
2019-01-11T13:35:47.386Z,4.14
2019-01-11T13:38:34.779Z,4.54
2019-01-11T13:41:22.033Z,4.59
2019-01-11T13:44:09.438Z,4.39
2019-01-11T13:46:56.399Z,4.17
2019-01-11T13:49:43.760Z,4.43
2019-01-11T13:52:32.106Z,4.38
2019-01-11T13:55:18.970Z,4.48
2019-01-11T13:58:06.642Z,4.66
2019-01-11T14:00:54.873Z,4.46
2019-01-11T14:03:41.724Z,4.29
2019-01-11T14:06:28.966Z,4.42
2019-01-11T14:09:16.174Z,4.70
2019-01-11T14:12:03.050Z,4.65
2019-01-11T14:14:50.478Z,4.27
2019-01-11T14:17:37.796Z,4.34
2019-01-11T14:20:25.949Z,3.93
2019-01-11T14:23:12.900Z,3.77
2019-01-11T14:26:00.104Z,4.12
2019-01-11T14:28:47.444Z,4.27
2019-01-11T14:31:34.562Z,4.19
2019-01-11T14:34:22.081Z,3.88
2019-01-11T14:37:09.042Z,4.21
2019-01-11T14:39:55.943Z,4.20
2019-01-11T14:42:43.633Z,3.96
2019-01-11T14:45:30.950Z,3.94
2019-01-11T14:48:18.331Z,3.82
2019-01-11T14:51:05.647Z,3.67
2019-01-11T14:53:53.118Z,3.49
2019-01-11T14:56:40.348Z,3.87
2019-01-11T14:59:27.763Z,3.50
2019-01-11T15:02:15.208Z,3.88
2019-01-11T15:05:02.629Z,4.02
2019-01-11T15:07:49.767Z,3.66
2019-01-11T15:10:36.984Z,3.99
2019-01-11T15:13:24.252Z,4.04
2019-01-11T15:16:11.170Z,4.05
2019-01-11T15:18:58.218Z,4.02
2019-01-11T15:21:45.616Z,4.09
2019-01-11T15:24:32.920Z,3.84
2019-01-11T15:27:20.332Z,3.83
2019-01-11T15:30:18.357Z,3.94
2019-01-11T15:33:05.508Z,3.84
2019-01-11T15:35:52.278Z,4.26
2019-01-11T15:38:39.790Z,3.97
2019-01-11T15:41:26.922Z,4.05
2019-01-11T15:44:14.130Z,3.91
2019-01-11T15:47:01.280Z,3.84
2019-01-11T15:49:48.851Z,3.82
2019-01-11T15:52:36.202Z,3.67
2019-01-11T15:55:24.704Z,3.76
2019-01-11T15:58:12.000Z,4.00
2019-01-11T16:00:59.384Z,4.08
2019-01-11T16:03:46.560Z,4.21
2019-01-11T16:06:33.989Z,4.24
2019-01-11T16:09:56.840Z,4.37
2019-01-11T16:12:44.504Z,4.11
2019-01-11T16:15:43.483Z,4.31
2019-01-11T16:18:30.976Z,4.39
2019-01-11T16:21:18.072Z,4.01
2019-01-11T16:24:05.971Z,4.36
2019-01-11T16:26:53.034Z,4.53
2019-01-11T16:29:40.376Z,4.23
2019-01-11T16:32:27.448Z,4.31
2019-01-11T16:35:14.796Z,4.41
2019-01-11T16:38:01.860Z,4.02
2019-01-11T16:40:49.294Z,4.14
2019-01-11T16:43:36.341Z,4.51
2019-01-11T16:46:23.694Z,4.46
2019-01-11T16:49:11.229Z,4.43
2019-01-11T16:51:58.286Z,4.62
2019-01-11T16:54:45.526Z,4.65
2019-01-11T16:57:33.274Z,4.38
2019-01-11T17:00:20.818Z,4.45
2019-01-11T17:03:08.235Z,4.49
2019-01-11T17:05:55.785Z,4.43
2019-01-11T17:08:43.139Z,4.68
2019-01-11T17:11:31.360Z,4.72
2019-01-11T17:14:18.449Z,4.66
2019-01-11T17:17:06.048Z,4.55
2019-01-11T17:19:53.573Z,4.49
2019-01-11T17:22:40.784Z,4.36
2019-01-11T17:25:28.016Z,4.68
2019-01-11T17:28:15.514Z,5.14
2019-01-11T17:31:03.259Z,4.82
2019-01-11T17:33:51.070Z,4.90
2019-01-11T17:36:38.536Z,4.93
2019-01-11T17:39:25.698Z,4.44
2019-01-11T17:42:13.048Z,4.69
2019-01-11T17:45:00.447Z,4.73
2019-01-11T17:47:47.909Z,4.85
2019-01-11T17:50:35.415Z,4.43
2019-01-11T17:53:22.570Z,4.81
2019-01-11T17:56:09.785Z,4.89
2019-01-11T17:58:56.835Z,4.89
2019-01-11T18:01:44.052Z,5.03
2019-01-11T18:04:32.295Z,4.96
2019-01-11T18:07:19.709Z,4.92
2019-01-11T18:10:09.274Z,3.89
2019-01-11T18:12:56.456Z,5.04
2019-01-11T18:15:43.610Z,4.78
2019-01-11T18:18:30.989Z,4.78
2019-01-11T18:21:18.552Z,4.74
2019-01-11T18:24:05.646Z,5.07
2019-01-11T18:26:53.262Z,4.72
2019-01-11T18:29:40.629Z,4.84
2019-01-11T18:32:28.055Z,4.99
2019-01-11T18:35:15.725Z,5.08
2019-01-11T18:38:03.035Z,5.04
2019-01-11T18:40:49.888Z,4.99
2019-01-11T18:43:36.873Z,4.88
2019-01-11T18:46:24.422Z,4.88
2019-01-11T18:49:11.309Z,4.96
2019-01-11T18:51:58.436Z,5.28
2019-01-11T18:54:45.313Z,5.55
2019-01-11T18:57:32.515Z,5.50
2019-01-11T19:00:24.341Z,5.71
2019-01-11T19:03:11.677Z,5.66
2019-01-11T19:05:59.040Z,5.67
2019-01-11T19:08:46.425Z,5.58
2019-01-11T19:11:33.785Z,5.60
2019-01-11T19:14:20.891Z,5.60
2019-01-11T19:17:08.158Z,5.55
2019-01-11T19:19:55.627Z,5.74
2019-01-11T19:22:43.047Z,5.72
2019-01-11T19:25:29.985Z,5.38
2019-01-11T19:28:17.244Z,5.65
2019-01-11T19:31:04.462Z,5.61
2019-01-11T19:33:51.493Z,5.70
2019-01-11T19:36:39.078Z,5.86
2019-01-11T19:39:26.507Z,5.86
2019-01-11T19:42:13.455Z,5.94
2019-01-11T19:45:00.815Z,5.97
2019-01-11T19:47:48.089Z,6.07
2019-01-11T19:50:36.770Z,6.00
2019-01-11T19:53:27.659Z,5.90
2019-01-11T19:56:13.123Z,5.82
2019-01-11T19:59:00.533Z,5.97
2019-01-11T20:01:47.985Z,6.16
2019-01-11T20:04:35.413Z,5.96
2019-01-11T20:07:22.583Z,5.97
2019-01-11T20:10:12.939Z,6.01
2019-01-11T20:13:00.580Z,5.90
2019-01-11T20:15:47.624Z,5.92
2019-01-11T20:18:35.137Z,6.12
2019-01-11T20:21:22.521Z,6.16
2019-01-11T20:24:09.501Z,6.08
2019-01-11T20:26:56.594Z,5.86
2019-01-11T20:29:43.414Z,5.84
2019-01-11T20:32:30.570Z,5.63
2019-01-11T20:35:18.442Z,5.94
2019-01-11T20:38:05.714Z,5.79
2019-01-11T20:40:53.195Z,5.86
2019-01-11T20:43:41.947Z,5.71
2019-01-11T20:46:29.053Z,5.74
2019-01-11T20:49:16.323Z,5.97
2019-01-11T20:52:03.570Z,5.97
2019-01-11T20:54:50.675Z,5.81
2019-01-11T20:57:38.024Z,5.96
2019-01-11T21:00:27.937Z,6.01
2019-01-11T21:03:15.634Z,6.13
2019-01-11T21:06:03.124Z,5.88
2019-01-11T21:08:50.607Z,5.97
2019-01-11T21:11:37.874Z,6.07
2019-01-11T21:14:24.943Z,6.13
2019-01-11T21:17:12.420Z,6.11
2019-01-11T21:19:59.545Z,6.37
2019-01-11T21:22:48.038Z,6.47
2019-01-11T21:25:35.150Z,6.43
2019-01-11T21:28:22.317Z,6.48
2019-01-11T21:31:09.258Z,6.58
2019-01-11T21:33:56.445Z,6.66
2019-01-11T21:36:43.703Z,6.70
2019-01-11T21:39:30.963Z,6.69
2019-01-11T21:42:19.127Z,6.64
2019-01-11T21:45:08.653Z,6.57
2019-01-11T21:47:56.202Z,6.55
2019-01-11T21:50:43.437Z,6.56
2019-01-11T21:53:30.592Z,6.61
2019-01-11T21:56:17.801Z,6.61
2019-01-11T21:59:05.373Z,6.63
2019-01-11T22:01:52.276Z,6.68
2019-01-11T22:04:39.367Z,6.76
2019-01-11T22:07:26.674Z,6.73
2019-01-11T22:10:16.419Z,6.82
2019-01-11T22:13:03.664Z,6.93
2019-01-11T22:15:50.617Z,6.90
2019-01-11T22:18:39.070Z,6.84
2019-01-11T22:21:26.293Z,6.95
2019-01-11T22:24:13.455Z,7.01
2019-01-11T22:27:00.605Z,6.91
2019-01-11T22:29:47.798Z,7.03
2019-01-11T22:32:35.265Z,7.02
2019-01-11T22:35:22.396Z,7.02
2019-01-11T22:38:09.715Z,7.12
2019-01-11T22:40:57.014Z,7.10
2019-01-11T22:43:44.369Z,7.12
2019-01-11T22:46:31.791Z,7.25
2019-01-11T22:49:18.829Z,7.29
2019-01-11T22:52:06.930Z,7.29
2019-01-11T22:54:53.789Z,7.29
2019-01-11T22:57:41.186Z,7.21
2019-01-11T23:00:35.453Z,7.26
2019-01-11T23:03:26.109Z,7.19
2019-01-11T23:06:28.195Z,7.18
2019-01-11T23:09:15.703Z,7.20
2019-01-11T23:12:12.163Z,7.27
2019-01-11T23:14:59.604Z,7.29
2019-01-11T23:17:50.211Z,7.25
2019-01-11T23:20:37.475Z,7.13
2019-01-11T23:23:24.394Z,7.23
2019-01-11T23:26:11.527Z,7.33
2019-01-11T23:28:58.618Z,7.23
2019-01-11T23:31:46.196Z,7.20
2019-01-11T23:34:33.611Z,7.25
2019-01-11T23:37:21.056Z,7.31
2019-01-11T23:40:11.117Z,7.34
2019-01-11T23:42:58.571Z,7.39
2019-01-11T23:45:45.786Z,7.38
2019-01-11T23:48:32.776Z,7.37
2019-01-11T23:51:19.951Z,7.34
2019-01-11T23:54:06.832Z,7.37
2019-01-11T23:56:55.023Z,7.42
2019-01-11T23:59:41.770Z,7.43
